Terminal Aerodrome Forecast
Issued by NWS

Home | Current Version | Previous Version | Text Only | Print | Product List | Glossary Off
Versions: 1 2 3 4 5 6 7 8 9 10 11 12 13 14 15 16 17 18 19 20 21 22 23 24 25 26 27

000
FTUS43 KABR 291000 AAA
TAFPIR
TAF AMD
KPIR 291021Z 2910/3006 06013KT P6SM VCSH OVC012
     FM291300 06014KT P6SM OVC010
     FM291800 10013KT P6SM OVC020
     FM292100 10015KT P6SM OVC040=

USA.gov is the U.S. government's official web portal to all federal, state and local government web resources and services.